Current Weather

NSFA McMurdo Sound

NSFA McMurdo Sound, Antarctica (NZCM)

Report from: Tuesday, August 16, 2022 12:55 AM UTC
Current time: Tuesday, August 16, 2022 1:25 AM UTC

Nearby weather
Weather history
Weather forecast

Temperature-21.7°C (-7.1°F)
Wind chill-36.7°C (-34.1°F)
Dew point-27.8°C (-18.0°F)
Winds 23 kts (11.8 m/s, 26.5 mph) South-Southeast (160°)
Wind gusts 30 kts (15.4 m/s, 34.5 mph)
Peak wind 30 kts (15.4 m/s, 34.5 mph) South (170°) at 19:45
Visibility4.3 mi. (7 km)
Clouds Ceiling: Broken clouds 7,000 ft. (2,134 m)
Altimeter29.47 in.Hg (998 mB)
Relative humidity58 %
Density altitude-4,168 ft. (-1,270 m)
Sea-level pressure99.9 kPa (999 mB, 29.49 in.Hg)
Remarks Fully automated report
System requires maintenance
Automated weather observing station with precipitation discriminator
Flight conditions Marginal Visual Meteorological Conditions
Raw dataNZCM 160055Z AUTO 16023G30KT 7000 BKN070 M22/M28 A2947 RMK AO2 PK WND 17030/0045 SLP985 T12171278 $
An error has occurred. This application may no longer respond until reloaded. Reload 🗙